Flight Track Log - Related Links

Times and Time Zones

All times are in EDT time to prevent confusion due to time zone crossing. See the UAL3776 flight status page for this flight to view local times or setup timezone preferences in your user account.

Time Position Orientation Groundspeed Altitude Reporting Facility
EDT Latitude Longitude Course Direction KTS MPH feet Rate Location/Type
Thu 11:43:41 AM 25.7983 -80.2697 77° East 145 167 800  Level Miami Center
Thu 11:44:30 AM 25.8075 -80.2264 77° East 199 229 1,900 1,707 Climbing Miami Center
Thu 11:45:37 AM 25.8242 -80.1436 77° East 277 319 4,100 2,317 Climbing Miami Center
Thu 11:46:55 AM 25.9203 -80.1464 359° North 298 343 7,500 2,609 Climbing Miami Center
Thu 11:47:55 AM 25.9858 -80.2036 322° Northwest 277 319 10,100 2,050 Climbing Miami Center
Thu 11:48:55 AM 26.0533 -80.2656 321° Northwest 294 338 11,600 1,700 Climbing Miami Center
Thu 11:49:55 AM 26.1267 -80.3347 320° Northwest 321 369 13,500 1,900 Climbing Miami Center
Thu 11:50:55 AM 26.2025 -80.4017 322° Northwest 342 394 15,400 1,785 Climbing Miami Center
Thu 11:51:56 AM 26.2831 -80.4389 337° Northwest 342 394 17,100 1,700 Climbing Miami Center
Thu 11:52:55 AM 26.3906 -80.4839 339° North 365 420 18,800 1,613 Climbing Miami Center
Thu 11:53:55 AM 26.4817 -80.5169 342° North 377 434 20,300 1,488 Climbing Miami Center
Thu 11:54:56 AM 26.5931 -80.5622 340° North 387 445 21,800 1,500 Climbing Miami Center
Thu 11:55:55 AM 26.6861 -80.5978 341° North 387 445 23,300 1,311 Climbing Miami Center
Thu 11:56:55 AM 26.7897 -80.6358 342° North 387 445 24,400 1,050 Climbing Miami Center
Thu 11:57:55 AM 26.8931 -80.6786 340° North 387 445 25,400 1,200 Climbing Miami Center
Thu 11:58:55 AM 27.0006 -80.7150 343° North 392 451 26,800 1,150 Climbing Miami Center
Thu 11:59:55 AM 27.1106 -80.7419 348° North 392 451 27,700 800 Climbing Miami Center
Thu 12:00:55 PM 27.2225 -80.7689 348° North 398 458 28,400 700 Climbing Miami Center
Thu 12:01:55 PM 27.3472 -80.7942 350° North 408 470 29,100 700 Climbing Miami Center
Thu 12:02:55 PM 27.4633 -80.8217 348° North 413 475 29,800 700 Climbing Miami Center
Thu 12:03:55 PM 27.5814 -80.8492 348° North 420 483 30,500 800 Climbing Miami Center
Thu 12:04:55 PM 27.6975 -80.8767 348° North 426 490 31,400 942 Climbing Miami Center
Thu 12:05:56 PM 27.8117 -80.9042 348° North 426 490 32,400 1,000 Climbing Miami Center
Thu 12:06:55 PM 27.9258 -80.9294 349° North 421 484 33,400 1,109 Climbing Miami Center
Thu 12:07:55 PM 28.0356 -80.9569 348° North 416 479 34,600 1,000 Climbing Miami Center
Thu 12:08:55 PM 28.1475 -80.9819 349° North 405 466 35,400 750 Climbing Miami Center
Thu 12:09:55 PM 28.2553 -81.0072 348° North 405 466 36,100 600 Climbing Miami Center
Thu 12:10:55 PM 28.3631 -81.0325 348° North 400 460 36,600 450 Climbing Miami Center
Thu 12:11:55 PM 28.4708 -81.0578 348° North 395 455 37,000 258 Climbing Miami Center
Thu 12:12:28 PM 28.5272 -81.0781 342° North 394 453 37,000  Level Jacksonville Center
Thu 12:13:28 PM 28.6278 -81.0997 349° North 380 437 37,000  Level Jacksonville Center
Thu 12:14:28 PM 28.7431 -81.1261 349° North 394 453 37,000  Level Jacksonville Center
Thu 12:15:28 PM 28.8603 -81.1550 348° North 411 473 37,000  Level Jacksonville Center
Thu 12:16:28 PM 28.9756 -81.1836 348° North 416 479 37,000  Level Jacksonville Center
Thu 12:17:28 PM 29.0883 -81.2056 350° North 416 479 37,000  Level Jacksonville Center
Thu 12:18:28 PM 29.2036 -81.2369 347° North 416 479 37,000  Level Jacksonville Center
Thu 12:19:28 PM 29.3144 -81.2611 349° North 410 472 37,000  Level Jacksonville Center
Thu 12:20:28 PM 29.4278 -81.2928 346° North 415 478 37,000  Level Jacksonville Center
Thu 12:21:28 PM 29.5533 -81.3217 349° North 415 478 37,000  Level Jacksonville Center
Thu 12:22:28 PM 29.6683 -81.3486 348° North 415 478 37,000  Level Jacksonville Center
Thu 12:23:28 PM 29.7814 -81.3756 348° North 415 478 37,000  Level Jacksonville Center
Thu 12:24:28 PM 29.8967 -81.4022 349° North 415 478 37,000  Level Jacksonville Center
Thu 12:25:28 PM 30.0139 -81.4317 348° North 415 478 37,000  Level Jacksonville Center
Thu 12:26:28 PM 30.1292 -81.4611 348° North 415 478 37,000  Level Jacksonville Center
Thu 12:27:28 PM 30.2442 -81.4858 349° North 415 478 37,000  Level Jacksonville Center
Thu 12:28:28 PM 30.3633 -81.5058 352° North 420 483 37,000  Level Jacksonville Center
Thu 12:29:28 PM 30.4886 -81.4969 North 432 497 37,000  Level Jacksonville Center
Thu 12:30:28 PM 30.6117 -81.4878 North 432 497 37,000  Level Jacksonville Center
Thu 12:31:28 PM 30.7347 -81.4811 North 442 509 37,000  Level Jacksonville Center
Thu 12:32:28 PM 30.8600 -81.4694 North 442 509 37,000  Level Jacksonville Center
Thu 12:33:28 PM 30.9850 -81.4606 North 442 509 37,000  Level Jacksonville Center
Thu 12:34:28 PM 31.1081 -81.4489 North 442 509 37,000  Level Jacksonville Center
Thu 12:35:28 PM 31.2333 -81.4397 North 442 509 37,000  Level Jacksonville Center
Thu 12:36:28 PM 31.3561 -81.4061 13° North 442 509 37,000  Level Jacksonville Center
Thu 12:37:28 PM 31.4744 -81.3408 25° Northeast 453 521 37,000  Level Jacksonville Center
Thu 12:38:28 PM 31.5781 -81.2806 26° Northeast 460 529 37,000  Level Jacksonville Center
Thu 12:39:28 PM 31.7064 -81.2053 27° Northeast 460 529 37,000  Level Jacksonville Center
Thu 12:40:28 PM 31.8244 -81.1369 26° Northeast 465 535 37,000  Level Jacksonville Center
Thu 12:41:28 PM 31.9342 -81.0736 26° Northeast 465 535 37,000  Level Jacksonville Center
Thu 12:42:28 PM 32.0606 -80.9928 28° Northeast 465 535 37,000  Level Jacksonville Center
Thu 12:43:28 PM 32.1703 -80.9317 25° Northeast 471 542 37,000  Level Jacksonville Center
Thu 12:44:28 PM 32.2983 -80.8528 28° Northeast 464 534 37,000  Level Jacksonville Center
Thu 12:45:28 PM 32.4161 -80.7836 26° Northeast 464 534 37,000  Level Jacksonville Center
Thu 12:46:28 PM 32.5194 -80.7219 27° Northeast 459 528 37,000  Level Jacksonville Center
Thu 12:47:28 PM 32.6353 -80.6503 28° Northeast 459 528 37,000  Level Jacksonville Center
Thu 12:48:28 PM 32.7528 -80.5781 27° Northeast 459 528 37,000  Level Jacksonville Center
Thu 12:49:28 PM 32.8683 -80.5083 27° Northeast 459 528 37,000  Level Jacksonville Center
Thu 12:50:28 PM 32.9881 -80.4383 26° Northeast 459 528 37,000  Level Jacksonville Center
Thu 12:51:28 PM 33.1097 -80.3606 28° Northeast 472 543 37,000  Level Jacksonville Center
Thu 12:52:28 PM 33.2419 -80.2847 26° Northeast 479 551 37,000  Level Jacksonville Center
Thu 12:53:28 PM 33.3614 -80.2092 28° Northeast 479 551 37,000 -50 Level Jacksonville Center
Thu 12:54:28 PM 33.4767 -80.1361 28° Northeast 474 545 36,900  Descending Jacksonville Center
Thu 12:55:28 PM 33.5939 -80.0600 28° Northeast 474 545 37,000 50 Climbing Jacksonville Center
Thu 12:56:28 PM 33.7111 -79.9889 27° Northeast 469 540 37,000 -50 Level Jacksonville Center
Thu 12:57:28 PM 33.8264 -79.9175 27° Northeast 464 534 36,900 -50 Descending Jacksonville Center
Thu 12:58:28 PM 33.9394 -79.8461 28° Northeast 464 534 36,900 50 Level Jacksonville Center
Thu 12:59:28 PM 34.0506 -79.7772 27° Northeast 459 528 37,000 30 Climbing Jacksonville Center
Thu 01:01:51 PM 34.3083 -79.6194 27° Northeast 453 521 37,000  Level Washington Center
Thu 01:02:51 PM 34.4275 -79.5575 23° Northeast 453 521 37,000  Level Washington Center
Thu 01:03:51 PM 34.5464 -79.4953 23° Northeast 458 527 37,000 -200 Level Washington Center
Thu 01:04:51 PM 34.6631 -79.4350 23° Northeast 458 527 36,600 -950 Descending Washington Center
Thu 01:05:51 PM 34.7861 -79.3700 23° Northeast 458 527 35,100 -1,500 Descending Washington Center
Thu 01:06:51 PM 34.9069 -79.3072 23° Northeast 464 534 33,600 -1,500 Descending Washington Center
Thu 01:07:51 PM 35.0258 -79.2417 24° Northeast 464 534 32,100 -1,500 Descending Washington Center
Thu 01:08:51 PM 35.1444 -79.1811 23° Northeast 459 528 30,600 -1,550 Descending Washington Center
Thu 01:09:51 PM 35.2761 -79.1081 24° Northeast 459 528 29,000 -1,550 Descending Washington Center
Thu 01:10:51 PM 35.4011 -79.0422 23° Northeast 482 555 27,500 -1,500 Descending Washington Center
Thu 01:11:51 PM 35.5261 -78.9761 23° Northeast 482 555 26,000 -750 Descending Washington Center
Thu 01:12:51 PM 35.6531 -78.9100 23° Northeast 482 555 26,000  Level Washington Center
Thu 01:13:51 PM 35.7781 -78.8411 24° Northeast 482 555 26,000  Level Washington Center
Thu 01:14:51 PM 35.9011 -78.7717 25° Northeast 482 555 26,000  Level Washington Center
Thu 01:15:51 PM 36.0239 -78.7047 24° Northeast 482 555 26,000  Level Washington Center
Thu 01:16:51 PM 36.1444 -78.6350 25° Northeast 482 555 26,000  Level Washington Center
Thu 01:17:51 PM 36.2608 -78.5697 24° Northeast 470 541 26,000  Level Washington Center
Thu 01:18:51 PM 36.3772 -78.5019 25° Northeast 465 535 26,000  Level Washington Center
Thu 01:19:51 PM 36.4875 -78.4364 26° Northeast 453 521 26,000  Level Washington Center
Thu 01:20:51 PM 36.5931 -78.3781 24° Northeast 422 486 26,000  Level Washington Center
Thu 01:21:51 PM 36.6861 -78.3219 26° Northeast 416 479 26,000 -300 Level Washington Center
Thu 01:22:51 PM 36.7983 -78.2583 24° Northeast 416 479 25,400 -1,100 Descending Washington Center
Thu 01:23:51 PM 36.9039 -78.1972 25° Northeast 416 479 23,800 -1,550 Descending Washington Center
Thu 01:24:51 PM 37.0094 -78.1356 25° Northeast 416 479 22,300 -900 Descending Washington Center
Thu 01:25:51 PM 37.1108 -78.0764 25° Northeast 405 466 22,000 -150 Descending Washington Center
Thu 01:26:51 PM 37.2122 -78.0172 25° Northeast 399 459 22,000  Level Washington Center
Thu 01:27:51 PM 37.3178 -77.9553 25° Northeast 405 466 22,000  Level Washington Center
Thu 01:28:51 PM 37.4256 -77.8906 25° Northeast 410 472 22,000  Level Washington Center
Thu 01:29:51 PM 37.5414 -77.8233 25° Northeast 427 491 22,000  Level Washington Center
Thu 01:30:51 PM 37.6531 -77.7583 25° Northeast 432 497 22,000 -850 Level Washington Center
Thu 01:31:51 PM 37.7650 -77.6906 26° Northeast 432 497 20,300 -2,300 Descending Washington Center
Thu 01:32:51 PM 37.8744 -77.6281 24° Northeast 432 497 17,400 -2,850 Descending Washington Center
Thu 01:33:51 PM 37.9778 -77.5675 25° Northeast 420 483 14,600 -3,000 Descending Washington Center
Thu 01:34:51 PM 38.0744 -77.5067 26° Northeast 394 453 11,400 -2,300 Descending Washington Center
Thu 01:35:51 PM 38.1756 -77.4458 25° Northeast 366 421 10,000 -700 Descending Washington Center
Thu 01:36:51 PM 38.2514 -77.4056 23° Northeast 334 384 10,000 -300 Level Washington Center
Thu 01:37:51 PM 38.3439 -77.3547 North 323 372 9,400 -1,200 Descending Washington Center
Thu 01:38:00 PM 38.3684 -77.3500 North  Level FlightAware Approximate
Thu 01:38:51 PM 38.4292 -77.3542 360° North 305 351 7,600  Level Washington Center
Thu 01:39:51 PM 38.5106 -77.3614 356° North 294 338 6,000 -1,300 Descending Washington Center
Thu 01:40:51 PM 38.5875 -77.3633 359° North 287 330 5,000 -828 Descending Washington Center
Thu 01:41:47 PM 38.6667 -77.3667 358° North 277 319 4,400 -253 Descending Potomac TRACON
Thu 01:43:00 PM 38.7966 -77.3500 North  Level FlightAware Approximate
Thu 01:44:48 PM 38.8833 -77.3500 191° South 274 315 4,000  Level Potomac TRACON
Thu 01:45:48 PM 38.9667 -77.3500 360° North 266 306 3,600 -500 Descending Potomac TRACON
Thu 01:46:48 PM 39.0333 -77.3500 360° North 236 272 3,000 -300 Descending Potomac TRACON
Thu 01:47:48 PM 39.0667 -77.4000 311° West 202 232 3,000 -545 Level Potomac TRACON
Thu 01:48:49 PM 39.0333 -77.4333 218° Southwest 190 219 1,900 -992 Descending Potomac TRACON
Thu 01:49:49 PM 38.9833 -77.4333 180° South 137 158 1,000 -900 Descending Potomac TRACON
Thu 01:50:00 PM 38.9333 -77.4500 191° South  Level FlightAware Approximate
Thu 01:51:00 PM 38.9474 -77.4599 191° South  Level Estimated
Thu 01:58:00 PM 38.9474 -77.4599 191° South  Level Estimated
Thu 01:59:00 PM 38.9474 -77.4599 191° South  Level Estimated
Thu 02:00:00 PM 38.9474 -77.4599 191° South  Level Estimated
Thu 02:01:00 PM 38.9474 -77.4599 191° South  Level Estimated

Login

Don't have an account? Register now (free) for customized features, flight alerts, and more!